Time;durP1;ratioP1;P1;durP2;ratioP2;P2;SDS_P1;SDS_P2;PMS_P1;PMS_P2;Temp;Humidity;BMP_temperature;BMP_pressure;BME280_temperature;BME280_humidity;BME280_pressure;Samples;Min_cycle;Max_cycle;Signal;HPM_P1;HPM_P2
2023/08/05 00:00:44;;;;;;;5.72;2.00;;;15.30;99.90;;;;;;4991482;28;20025;-80
2023/08/05 00:03:10;;;;;;;3.88;2.55;;;15.20;99.90;;;;;;4993667;28;20037;-79
2023/08/05 00:05:37;;;;;;;3.63;2.15;;;15.10;99.90;;;;;;4975329;28;20049;-78
2023/08/05 00:08:04;;;;;;;5.03;2.90;;;15.10;99.90;;;;;;5022619;28;20484;-79
2023/08/05 00:10:30;;;;;;;4.80;2.45;;;15.00;99.90;;;;;;5006250;28;20041;-80
2023/08/05 00:12:56;;;;;;;3.13;2.58;;;14.90;99.90;;;;;;4993225;28;20038;-80
2023/08/05 00:15:21;;;;;;;3.35;1.92;;;15.10;99.90;;;;;;5003694;28;20485;-80
2023/08/05 00:17:47;;;;;;;2.38;2.17;;;15.00;99.90;;;;;;5019902;28;20040;-80
2023/08/05 00:20:12;;;;;;;3.90;2.88;;;15.00;99.90;;;;;;4987389;28;20034;-80
2023/08/05 00:22:38;;;;;;;4.85;2.75;;;14.90;99.90;;;;;;5007730;28;20088;-80
2023/08/05 00:25:04;;;;;;;3.97;2.45;;;14.90;99.90;;;;;;4973128;28;20100;-80
2023/08/05 00:27:29;;;;;;;5.10;2.80;;;14.80;99.90;;;;;;4993105;28;20072;-79
2023/08/05 00:29:55;;;;;;;9.43;3.42;;;14.70;99.90;;;;;;4975744;28;20033;-80
2023/08/05 00:32:20;;;;;;;4.40;2.90;;;14.70;99.90;;;;;;4991063;28;20045;-80
2023/08/05 00:34:46;;;;;;;10.07;3.80;;;14.70;99.90;;;;;;4993452;28;20029;-80
2023/08/05 00:37:12;;;;;;;6.97;4.10;;;14.70;99.90;;;;;;5006312;28;20044;-79
2023/08/05 00:39:37;;;;;;;4.78;2.55;;;14.70;99.90;;;;;;4993282;28;20033;-80
2023/08/05 00:42:03;;;;;;;5.28;2.85;;;14.70;99.90;;;;;;4978432;28;20038;-80
2023/08/05 00:44:29;;;;;;;5.15;3.42;;;14.70;99.90;;;;;;4991938;28;20298;-80
2023/08/05 00:46:54;;;;;;;7.65;2.80;;;14.70;99.90;;;;;;4990368;28;20033;-80
2023/08/05 00:49:20;;;;;;;6.95;4.13;;;14.70;99.90;;;;;;4990299;28;20091;-80
2023/08/05 00:51:46;;;;;;;4.60;2.55;;;14.70;99.90;;;;;;4989354;28;20096;-79
2023/08/05 00:54:11;;;;;;;9.18;2.88;;;14.60;99.90;;;;;;4986454;28;20122;-79
2023/08/05 00:56:37;;;;;;;2.75;2.15;;;14.70;99.90;;;;;;4996281;28;20034;-80
2023/08/05 00:59:02;;;;;;;7.75;3.75;;;14.70;99.90;;;;;;4991435;28;20117;-80
2023/08/05 01:01:28;;;;;;;8.75;4.10;;;14.70;99.90;;;;;;4976480;28;20030;-80
2023/08/05 01:03:53;;;;;;;3.65;2.95;;;14.50;99.90;;;;;;4991424;28;20034;-80
2023/08/05 01:06:19;;;;;;;6.53;3.70;;;14.40;99.90;;;;;;5003348;28;20034;-80
2023/08/05 01:08:45;;;;;;;7.65;3.65;;;14.40;99.90;;;;;;4985302;28;20472;-79
2023/08/05 01:11:11;;;;;;;2.65;2.40;;;14.30;99.90;;;;;;4976886;28;20059;-79
2023/08/05 01:13:37;;;;;;;4.13;2.75;;;14.30;99.90;;;;;;4979049;28;20029;-80
2023/08/05 01:16:02;;;;;;;6.07;3.90;;;14.50;99.90;;;;;;5003584;28;20033;-80
2023/08/05 01:18:28;;;;;;;4.15;3.75;;;14.50;99.90;;;;;;4990702;28;20089;-80
2023/08/05 01:20:54;;;;;;;6.68;4.15;;;14.30;99.90;;;;;;5002837;28;20141;-79
2023/08/05 01:23:29;;;;;;;8.85;4.60;;;14.30;99.90;;;;;;4973247;28;20039;-80
2023/08/05 01:25:54;;;;;;;5.97;3.38;;;14.10;99.90;;;;;;4991714;28;20113;-80
2023/08/05 01:28:20;;;;;;;3.90;2.70;;;14.10;99.90;;;;;;4977067;28;20116;-80
2023/08/05 01:30:45;;;;;;;5.72;2.88;;;14.10;99.90;;;;;;4974216;28;20107;-79
2023/08/05 01:33:12;;;;;;;4.28;2.50;;;14.20;99.90;;;;;;5005200;28;20037;-79
2023/08/05 01:35:37;;;;;;;4.30;3.00;;;14.30;99.90;;;;;;4988276;28;20076;-80
2023/08/05 01:38:03;;;;;;;4.47;2.55;;;14.10;99.90;;;;;;5004882;28;20066;-80
2023/08/05 01:40:28;;;;;;;2.30;2.10;;;14.10;99.90;;;;;;4987965;28;20108;-80
2023/08/05 01:42:57;;;;;;;5.22;2.95;;;14.00;99.90;;;;;;5023178;28;20073;-79
2023/08/05 01:45:22;;;;;;;4.13;3.05;;;14.00;99.90;;;;;;4975380;28;20150;-80
2023/08/05 01:47:48;;;;;;;11.43;4.53;;;14.00;99.90;;;;;;4970924;28;20066;-79
2023/08/05 01:50:13;;;;;;;7.88;4.30;;;14.10;99.90;;;;;;4973072;28;20042;-80
2023/08/05 01:52:39;;;;;;;5.15;3.88;;;14.00;99.90;;;;;;4992462;28;20034;-80
2023/08/05 01:55:05;;;;;;;5.43;3.40;;;13.90;99.90;;;;;;4986901;28;20037;-79
2023/08/05 01:57:30;;;;;;;4.07;3.67;;;13.90;99.90;;;;;;5020065;28;20121;-79
2023/08/05 01:59:56;;;;;;;4.10;3.40;;;13.90;99.90;;;;;;4985930;28;20108;-80
2023/08/05 02:02:21;;;;;;;6.70;3.08;;;13.90;99.90;;;;;;4971910;28;20057;-79
2023/08/05 02:04:47;;;;;;;5.65;3.90;;;13.90;99.90;;;;;;4991148;28;20037;-80
2023/08/05 02:07:12;;;;;;;2.95;2.22;;;13.90;99.90;;;;;;4986890;28;20022;-79
2023/08/05 02:09:38;;;;;;;4.60;2.10;;;14.00;99.90;;;;;;4988601;28;20033;-79
2023/08/05 02:12:04;;;;;;;7.00;2.83;;;14.00;99.90;;;;;;5008771;28;20041;-80
2023/08/05 02:14:29;;;;;;;9.82;4.20;;;14.10;99.90;;;;;;4991599;28;20374;-80
2023/08/05 02:16:55;;;;;;;5.97;4.40;;;13.90;99.90;;;;;;4976382;28;20017;-80
2023/08/05 02:19:20;;;;;;;5.80;3.58;;;13.80;99.90;;;;;;4972254;28;20482;-79
2023/08/05 02:21:46;;;;;;;5.93;3.95;;;13.90;99.90;;;;;;4973093;28;20033;-80
2023/08/05 02:24:12;;;;;;;7.65;5.07;;;13.90;99.90;;;;;;4972926;28;20041;-80
2023/08/05 02:26:37;;;;;;;10.27;5.18;;;13.70;99.90;;;;;;4991572;28;20397;-80
2023/08/05 02:29:03;;;;;;;9.45;5.80;;;13.70;99.90;;;;;;5001097;28;20490;-80
2023/08/05 02:31:28;;;;;;;7.68;4.80;;;13.50;99.90;;;;;;4973146;28;20433;-80
2023/08/05 02:33:54;;;;;;;5.70;4.95;;;13.40;99.90;;;;;;4990549;28;20587;-80
2023/08/05 02:36:20;;;;;;;8.32;4.90;;;13.40;99.90;;;;;;4987902;28;20531;-80
2023/08/05 02:38:45;;;;;;;6.18;5.10;;;13.40;99.90;;;;;;4990132;28;20436;-80
2023/08/05 02:41:11;;;;;;;4.53;3.28;;;13.40;99.90;;;;;;4989943;28;20220;-81
2023/08/05 02:43:36;;;;;;;8.75;5.43;;;13.40;99.90;;;;;;4987334;28;20029;-80
2023/08/05 02:46:02;;;;;;;6.10;4.25;;;13.50;99.90;;;;;;4983863;28;20029;-79
2023/08/05 02:48:27;;;;;;;5.15;4.30;;;13.50;99.90;;;;;;4977167;28;20037;-80
2023/08/05 02:50:53;;;;;;;12.00;5.05;;;13.50;99.90;;;;;;5020891;28;20115;-80
2023/08/05 02:53:19;;;;;;;8.40;5.75;;;13.50;99.90;;;;;;4986332;28;20200;-80
2023/08/05 02:55:44;;;;;;;5.65;4.93;;;13.30;99.90;;;;;;4972620;28;20088;-80
2023/08/05 02:58:10;;;;;;;8.77;4.18;;;13.30;99.90;;;;;;4970578;28;20113;-80
2023/08/05 03:00:36;;;;;;;6.07;5.47;;;13.30;99.90;;;;;;4978888;28;20037;-80
2023/08/05 03:03:01;;;;;;;4.80;4.30;;;13.30;99.90;;;;;;5002077;28;20249;-80
2023/08/05 03:05:27;;;;;;;8.30;3.00;;;13.40;99.90;;;;;;4979570;28;20120;-80
2023/08/05 03:07:52;;;;;;;8.82;5.15;;;13.30;99.90;;;;;;4981205;28;20065;-80
2023/08/05 03:10:18;;;;;;;10.30;5.57;;;13.50;99.90;;;;;;5003330;28;20408;-80
2023/08/05 03:12:43;;;;;;;8.68;5.25;;;13.40;99.90;;;;;;4993491;28;20041;-80
2023/08/05 03:15:09;;;;;;;5.00;3.65;;;13.30;99.90;;;;;;4971509;28;20087;-80
2023/08/05 03:17:35;;;;;;;6.25;4.65;;;13.40;99.90;;;;;;4987728;28;20120;-80
2023/08/05 03:20:04;;;;;;;3.80;3.42;;;13.40;99.90;;;;;;4973195;28;20037;-79
2023/08/05 03:22:30;;;;;;;5.97;3.13;;;13.40;99.90;;;;;;4990672;28;20029;-80
2023/08/05 03:24:56;;;;;;;12.07;5.22;;;13.40;99.90;;;;;;4985732;28;20033;-79
2023/08/05 03:27:21;;;;;;;6.20;4.15;;;13.40;99.90;;;;;;4972088;28;20030;-79
2023/08/05 03:29:47;;;;;;;6.00;3.25;;;13.40;99.90;;;;;;4973618;28;20034;-80
2023/08/05 03:32:13;;;;;;;9.00;4.32;;;13.40;99.90;;;;;;4972572;28;20034;-80
2023/08/05 03:34:38;;;;;;;7.68;5.05;;;13.50;99.90;;;;;;4971495;28;20044;-79
2023/08/05 03:37:04;;;;;;;8.65;5.80;;;13.50;99.90;;;;;;4973256;28;20053;-80
2023/08/05 03:39:30;;;;;;;5.40;4.78;;;13.50;99.90;;;;;;4995669;28;20120;-81
2023/08/05 03:41:55;;;;;;;3.25;2.95;;;13.50;99.90;;;;;;5003385;28;20029;-80
2023/08/05 03:44:21;;;;;;;3.47;3.15;;;13.50;99.90;;;;;;5006665;28;20104;-80
2023/08/05 03:46:46;;;;;;;4.38;3.53;;;13.70;99.90;;;;;;4991589;28;20025;-80
2023/08/05 03:49:12;;;;;;;7.13;4.28;;;13.80;99.90;;;;;;4988480;28;20029;-80
2023/08/05 03:51:37;;;;;;;3.85;3.20;;;13.70;99.90;;;;;;4982314;28;20083;-80
2023/08/05 03:54:03;;;;;;;5.20;3.22;;;13.60;99.90;;;;;;4990105;28;20048;-80
2023/08/05 03:56:29;;;;;;;4.35;3.72;;;13.70;99.90;;;;;;4974419;28;20043;-79
2023/08/05 03:58:55;;;;;;;4.20;3.75;;;13.60;99.90;;;;;;4988803;28;20080;-80
2023/08/05 04:01:22;;;;;;;7.35;5.00;;;13.80;99.90;;;;;;5009465;28;20021;-80
2023/08/05 04:03:50;;;;;;;4.43;4.00;;;13.70;99.90;;;;;;4980087;28;20067;-81
2023/08/05 04:06:16;;;;;;;4.15;3.60;;;13.70;99.90;;;;;;4991028;28;20087;-80
2023/08/05 04:08:42;;;;;;;5.57;3.35;;;13.70;99.90;;;;;;4973877;28;20421;-80
2023/08/05 04:11:08;;;;;;;5.10;3.45;;;13.70;99.90;;;;;;4992327;28;20042;-80
2023/08/05 04:13:37;;;;;;;7.93;5.50;;;13.80;99.90;;;;;;4974694;28;20038;-80
2023/08/05 04:16:03;;;;;;;8.27;5.43;;;13.60;99.90;;;;;;4975803;28;20033;-80
2023/08/05 04:18:34;;;;;;;5.82;5.32;;;13.50;99.90;;;;;;4978281;28;20150;-80
2023/08/05 04:21:00;;;;;;;6.47;3.47;;;13.50;99.90;;;;;;5006853;28;20021;-80
2023/08/05 04:23:29;;;;;;;4.78;4.32;;;13.60;99.90;;;;;;4990220;28;20041;-80
2023/08/05 04:25:54;;;;;;;7.63;5.13;;;13.70;99.90;;;;;;5008242;28;20083;-80
2023/08/05 04:28:20;;;;;;;10.05;5.20;;;13.70;99.90;;;;;;4975783;28;20498;-80
2023/08/05 04:30:48;;;;;;;24.70;4.90;;;13.60;99.90;;;;;;4991494;28;20560;-79
2023/08/05 04:33:14;;;;;;;7.90;4.45;;;13.70;99.90;;;;;;4972305;28;20038;-79
2023/08/05 04:35:45;;;;;;;6.80;6.10;;;13.70;99.90;;;;;;4990079;28;20025;-80
2023/08/05 04:38:10;;;;;;;8.20;4.68;;;13.60;99.90;;;;;;4976806;28;20041;-79
2023/08/05 04:40:36;;;;;;;8.80;6.13;;;13.60;99.90;;;;;;4973654;28;20486;-78
2023/08/05 04:43:03;;;;;;;3.70;3.35;;;13.60;99.90;;;;;;4980228;28;20106;-79
2023/08/05 04:45:28;;;;;;;2.67;2.47;;;13.60;99.90;;;;;;5002950;28;20041;-80
2023/08/05 04:47:54;;;;;;;4.03;3.58;;;13.80;99.90;;;;;;5006148;28;20190;-81
2023/08/05 04:50:19;;;;;;;5.93;4.00;;;13.80;99.90;;;;;;4991299;28;20037;-80
2023/08/05 04:52:46;;;;;;;4.80;3.85;;;13.90;99.90;;;;;;4992498;28;20037;-80
2023/08/05 04:55:12;;;;;;;8.63;5.93;;;13.90;99.90;;;;;;4984956;28;20034;-79
2023/08/05 04:57:38;;;;;;;3.92;2.75;;;13.90;99.90;;;;;;4975871;28;20030;-79
2023/08/05 05:00:04;;;;;;;7.30;6.13;;;13.90;99.90;;;;;;5007193;28;20033;-80
2023/08/05 05:02:30;;;;;;;7.75;4.85;;;14.10;99.90;;;;;;5006399;28;20092;-80
2023/08/05 05:04:55;;;;;;;5.20;4.38;;;14.00;99.90;;;;;;5007405;28;21104;-80
2023/08/05 05:07:21;;;;;;;11.20;7.07;;;14.00;99.90;;;;;;4993673;28;20036;-79
2023/08/05 05:09:47;;;;;;;8.90;5.70;;;14.00;99.90;;;;;;4975866;28;20037;-80
2023/08/05 05:12:12;;;;;;;10.23;5.43;;;14.20;99.90;;;;;;5006456;28;20037;-80
2023/08/05 05:14:45;;;;;;;10.10;5.70;;;14.20;99.90;;;;;;4990239;28;20029;-80
2023/08/05 05:17:15;;;;;;;8.82;5.93;;;14.20;99.90;;;;;;4988305;28;20128;-79
2023/08/05 05:19:41;;;;;;;8.07;4.03;;;14.30;99.90;;;;;;4988848;28;20078;-80
2023/08/05 05:22:06;;;;;;;14.55;7.70;;;14.40;99.90;;;;;;5022961;28;20515;-80
2023/08/05 05:24:32;;;;;;;14.65;8.02;;;14.40;99.90;;;;;;4989212;28;20030;-79
2023/08/05 05:26:57;;;;;;;13.18;8.50;;;14.50;99.90;;;;;;4989750;28;21084;-80
2023/08/05 05:29:23;;;;;;;9.98;8.05;;;14.70;99.90;;;;;;4990641;28;20072;-80
2023/08/05 05:31:49;;;;;;;15.95;10.30;;;14.70;99.90;;;;;;4973781;28;20037;-79
2023/08/05 05:34:15;;;;;;;6.35;5.70;;;14.80;99.90;;;;;;4993327;28;20064;-80
2023/08/05 05:36:40;;;;;;;5.28;3.17;;;15.10;99.90;;;;;;4991752;28;20033;-80
2023/08/05 05:39:06;;;;;;;9.30;7.63;;;15.30;99.90;;;;;;5005073;28;20532;-80
2023/08/05 05:41:31;;;;;;;14.88;10.70;;;15.50;99.90;;;;;;4981150;28;20029;-80
2023/08/05 05:43:58;;;;;;;6.63;3.92;;;15.70;99.90;;;;;;4986195;28;20033;-79
2023/08/05 05:46:25;;;;;;;8.68;5.63;;;15.80;99.90;;;;;;5004065;28;20112;-79
2023/08/05 05:48:50;;;;;;;10.25;8.32;;;15.90;99.90;;;;;;4991614;28;20040;-79
2023/08/05 05:51:16;;;;;;;10.27;6.60;;;16.10;99.90;;;;;;5001796;28;20661;-79
2023/08/05 05:53:42;;;;;;;14.15;9.05;;;16.40;99.90;;;;;;5005329;28;20022;-79
2023/08/05 05:56:08;;;;;;;9.77;6.22;;;16.60;99.90;;;;;;4972505;28;20038;-79
2023/08/05 05:58:35;;;;;;;9.75;6.90;;;16.60;99.90;;;;;;5002202;28;20495;-78
2023/08/05 06:01:03;;;;;;;12.40;7.78;;;16.70;99.90;;;;;;5019455;28;20196;-79
2023/08/05 06:03:28;;;;;;;8.30;6.05;;;16.80;99.90;;;;;;4990280;28;20056;-79
2023/08/05 06:05:56;;;;;;;3.40;3.10;;;17.00;99.90;;;;;;4988715;28;20033;-79
2023/08/05 06:08:21;;;;;;;11.77;7.40;;;17.00;99.90;;;;;;4976182;28;20788;-79
2023/08/05 06:10:47;;;;;;;7.35;4.68;;;17.30;99.90;;;;;;4974132;28;20037;-79
2023/08/05 06:13:13;;;;;;;7.85;5.50;;;17.40;99.90;;;;;;4971006;28;20037;-79
2023/08/05 06:15:41;;;;;;;8.43;5.78;;;17.80;99.90;;;;;;4990960;28;20040;-79
2023/08/05 06:18:08;;;;;;;10.52;5.90;;;17.80;99.90;;;;;;4979435;28;20417;-79
2023/08/05 06:20:33;;;;;;;10.88;5.97;;;18.00;99.90;;;;;;4986580;28;20597;-79
2023/08/05 06:22:59;;;;;;;12.73;6.78;;;18.30;99.90;;;;;;4991669;28;20348;-79
2023/08/05 06:25:24;;;;;;;12.13;8.65;;;18.50;99.90;;;;;;4974625;28;20489;-80
2023/08/05 06:27:50;;;;;;;8.15;5.53;;;18.80;99.90;;;;;;5005648;28;20030;-79
2023/08/05 06:30:16;;;;;;;9.32;5.15;;;18.90;99.90;;;;;;4988126;28;20125;-79
2023/08/05 06:32:41;;;;;;;15.80;8.77;;;19.00;99.90;;;;;;4982819;28;20505;-79
2023/08/05 06:35:07;;;;;;;15.73;8.40;;;19.00;99.90;;;;;;5005111;28;20523;-79
2023/08/05 06:37:33;;;;;;;15.20;9.95;;;19.20;99.90;;;;;;4987839;28;20398;-79
2023/08/05 06:39:58;;;;;;;8.90;6.78;;;19.30;99.90;;;;;;5002637;28;20120;-79
2023/08/05 06:42:25;;;;;;;11.57;7.45;;;19.30;99.90;;;;;;5008056;28;20153;-79
2023/08/05 06:44:51;;;;;;;11.15;7.07;;;19.30;99.90;;;;;;4973046;28;20496;-80
2023/08/05 06:47:17;;;;;;;13.50;7.32;;;19.50;99.90;;;;;;5006717;28;20064;-78
2023/08/05 06:49:42;;;;;;;20.02;9.55;;;19.50;99.90;;;;;;4988891;28;20095;-79
2023/08/05 06:52:08;;;;;;;17.65;10.05;;;19.70;99.90;;;;;;4973161;28;20080;-79
2023/08/05 06:54:33;;;;;;;17.17;11.15;;;20.20;99.90;;;;;;4985023;28;20061;-80
2023/08/05 06:56:59;;;;;;;15.73;10.63;;;20.30;99.90;;;;;;5000010;28;20037;-79
2023/08/05 06:59:26;;;;;;;16.45;8.32;;;20.30;99.90;;;;;;4984599;28;20042;-77
2023/08/05 07:01:53;;;;;;;13.30;10.23;;;20.80;99.90;;;;;;4974928;28;20033;-76
2023/08/05 07:04:18;;;;;;;18.67;11.98;;;20.80;99.90;;;;;;4975496;28;20037;-77
2023/08/05 07:06:44;;;;;;;21.17;12.68;;;21.00;99.90;;;;;;4976114;28;20037;-77
2023/08/05 07:09:10;;;;;;;16.63;10.93;;;21.30;99.90;;;;;;4989783;28;20042;-77
2023/08/05 07:11:35;;;;;;;15.35;9.88;;;21.00;99.90;;;;;;5002420;28;20041;-77
2023/08/05 07:14:01;;;;;;;15.05;10.70;;;21.10;99.90;;;;;;4976858;28;20026;-78
2023/08/05 07:16:28;;;;;;;17.23;10.30;;;21.10;99.90;;;;;;5000382;28;20604;-77
2023/08/05 07:18:53;;;;;;;16.52;9.40;;;21.00;99.90;;;;;;5002046;28;20084;-77
2023/08/05 07:21:19;;;;;;;18.08;10.70;;;21.10;99.90;;;;;;4993749;28;20033;-79
2023/08/05 07:23:44;;;;;;;18.45;12.38;;;20.80;99.90;;;;;;5004601;28;20140;-78
2023/08/05 07:26:10;;;;;;;16.58;11.57;;;20.90;99.90;;;;;;5010434;28;20521;-77
2023/08/05 07:28:35;;;;;;;18.35;13.15;;;21.00;99.90;;;;;;4992719;28;20083;-78
2023/08/05 07:31:05;;;;;;;20.98;14.98;;;20.80;99.90;;;;;;4977510;28;20037;-78
2023/08/05 07:33:31;;;;;;;20.13;14.75;;;20.60;99.90;;;;;;4979472;28;20646;-78
2023/08/05 07:35:56;;;;;;;24.08;16.52;;;20.30;99.90;;;;;;5004915;28;20116;-79
2023/08/05 07:38:25;;;;;;;24.83;14.75;;;20.70;99.90;;;;;;5001153;28;20037;-77
2023/08/05 07:40:58;;;;;;;31.17;20.63;;;20.90;99.90;;;;;;4993958;28;20087;-80
2023/08/05 07:43:24;;;;;;;23.90;17.67;;;20.90;99.90;;;;;;4993173;28;20125;-78
2023/08/05 07:45:52;;;;;;;26.05;17.30;;;21.30;99.90;;;;;;4996004;28;20073;-78
2023/08/05 07:48:18;;;;;;;27.63;17.67;;;21.50;99.90;;;;;;4980203;28;20738;-79
2023/08/05 07:50:43;;;;;;;26.50;19.88;;;21.30;99.90;;;;;;4981415;28;20052;-79
2023/08/05 07:53:09;;;;;;;25.73;17.88;;;21.50;99.90;;;;;;5000217;28;20034;-79
2023/08/05 07:55:37;;;;;;;20.13;14.85;;;21.70;99.90;;;;;;4976054;28;20026;-79
2023/08/05 07:58:04;;;;;;;19.40;13.95;;;21.70;99.90;;;;;;4971968;28;20056;-79
2023/08/05 08:00:30;;;;;;;22.48;15.82;;;21.90;99.90;;;;;;5002617;28;20036;-79
2023/08/05 08:02:56;;;;;;;20.38;14.38;;;22.00;99.90;;;;;;4990592;28;20025;-79
2023/08/05 08:05:27;;;;;;;22.02;15.90;;;22.20;99.90;;;;;;4991551;28;20030;-79
2023/08/05 08:07:55;;;;;;;23.08;16.13;;;22.40;99.90;;;;;;4998186;28;20041;-78
2023/08/05 08:10:24;;;;;;;21.75;16.05;;;22.80;99.90;;;;;;4976563;28;20029;-79
2023/08/05 08:12:51;;;;;;;21.60;15.93;;;23.00;99.90;;;;;;4978656;28;20112;-79
2023/08/05 08:15:16;;;;;;;23.77;16.27;;;22.50;99.90;;;;;;4990735;28;20041;-78
2023/08/05 08:17:42;;;;;;;19.85;13.93;;;22.70;99.90;;;;;;4984442;28;20040;-79
2023/08/05 08:20:08;;;;;;;21.13;14.20;;;22.70;99.90;;;;;;4990520;28;20033;-79
2023/08/05 08:22:34;;;;;;;17.33;12.98;;;22.60;99.90;;;;;;4993034;28;20562;-79
2023/08/05 08:24:59;;;;;;;18.42;13.90;;;22.70;99.90;;;;;;4998677;28;20144;-79
2023/08/05 08:27:25;;;;;;;20.60;13.93;;;22.70;99.90;;;;;;4978663;28;20505;-78
2023/08/05 08:29:51;;;;;;;21.50;13.57;;;22.80;99.90;;;;;;4986722;28;20075;-78
2023/08/05 08:32:16;;;;;;;20.17;13.75;;;22.90;99.90;;;;;;4988836;28;20042;-77
2023/08/05 08:34:42;;;;;;;21.42;15.38;;;23.10;99.90;;;;;;4993337;28;20033;-78
2023/08/05 08:37:07;;;;;;;17.92;12.32;;;23.30;99.90;;;;;;4977549;28;20049;-79
2023/08/05 08:39:33;;;;;;;18.65;14.40;;;23.20;99.90;;;;;;4986972;28;20033;-79
2023/08/05 08:42:00;;;;;;;18.75;12.48;;;23.40;99.90;;;;;;4991263;28;20030;-79
2023/08/05 08:44:29;;;;;;;16.08;11.70;;;22.90;99.90;;;;;;4992004;28;20030;-78
2023/08/05 08:46:54;;;;;;;19.10;13.48;;;23.10;99.90;;;;;;5005798;28;20033;-79
2023/08/05 08:49:20;;;;;;;17.52;12.45;;;23.00;99.90;;;;;;4974395;28;20042;-79
2023/08/05 08:51:46;;;;;;;15.80;11.95;;;23.30;99.90;;;;;;4975077;28;20036;-78
2023/08/05 08:54:14;;;;;;;18.98;12.25;;;23.60;99.90;;;;;;4989772;28;20052;-78
2023/08/05 08:56:43;;;;;;;21.10;13.93;;;24.10;99.90;;;;;;5000266;28;20037;-79
2023/08/05 08:59:08;;;;;;;15.35;11.32;;;24.00;99.90;;;;;;4978593;28;20571;-78
2023/08/05 09:01:39;;;;;;;15.98;12.52;;;24.20;99.90;;;;;;4991596;28;20125;-79
2023/08/05 09:04:05;;;;;;;14.10;11.52;;;24.70;99.90;;;;;;4990225;28;20827;-80
2023/08/05 09:06:31;;;;;;;14.98;12.27;;;24.80;99.90;;;;;;4964128;28;20481;-79
2023/08/05 09:08:57;;;;;;;14.60;11.30;;;24.80;99.90;;;;;;5025435;28;20037;-78
2023/08/05 09:11:22;;;;;;;16.05;11.68;;;25.10;99.90;;;;;;4987957;28;20718;-78
2023/08/05 09:13:50;;;;;;;11.27;9.82;;;25.10;99.90;;;;;;4990713;28;20471;-77
2023/08/05 09:16:15;;;;;;;14.18;11.13;;;25.50;99.90;;;;;;5003118;28;20103;-79
2023/08/05 09:18:51;;;;;;;12.75;10.43;;;26.00;99.90;;;;;;4991757;28;20493;-79
2023/08/05 09:21:23;;;;;;;11.68;10.43;;;26.30;99.90;;;;;;4954494;28;20088;-79
2023/08/05 09:23:49;;;;;;;11.40;10.20;;;26.60;99.90;;;;;;5010442;28;20021;-78
2023/08/05 09:26:14;;;;;;;13.23;9.82;;;26.50;99.90;;;;;;5001240;28;20508;-78
2023/08/05 09:28:40;;;;;;;13.07;9.85;;;26.60;99.90;;;;;;4981158;28;20512;-79
2023/08/05 09:31:13;;;;;;;13.05;10.85;;;26.60;99.90;;;;;;4990167;28;20041;-79
2023/08/05 09:33:40;;;;;;;11.02;9.27;;;27.00;99.90;;;;;;4985427;28;20034;-79
2023/08/05 09:36:12;;;;;;;11.82;9.38;;;27.20;99.90;;;;;;4973156;28;20040;-79
2023/08/05 09:38:41;;;;;;;11.82;9.25;;;27.20;99.90;;;;;;4974144;28;20044;-79
2023/08/05 09:41:10;;;;;;;13.35;10.80;;;27.20;99.90;;;;;;4990131;28;20034;-78
2023/08/05 09:43:40;;;;;;;11.02;9.50;;;27.40;99.90;;;;;;4990165;28;20029;-79
2023/08/05 09:46:11;;;;;;;13.25;9.07;;;27.40;99.90;;;;;;4994018;28;20038;-78
2023/08/05 09:48:42;;;;;;;12.43;9.15;;;27.30;99.90;;;;;;4992440;28;20038;-78
2023/08/05 09:51:18;;;;;;;12.80;9.90;;;27.40;99.90;;;;;;4991439;28;20461;-79
2023/08/05 09:53:46;;;;;;;13.15;10.38;;;27.90;99.90;;;;;;4970221;28;20037;-79
2023/08/05 09:56:12;;;;;;;11.52;9.35;;;28.00;99.90;;;;;;4975160;28;20095;-79
2023/08/05 09:58:40;;;;;;;12.32;10.32;;;28.20;99.90;;;;;;4988931;28;20030;-79
2023/08/05 10:01:08;;;;;;;10.88;9.27;;;28.10;99.70;;;;;;5006618;28;20505;-79
2023/08/05 10:03:40;;;;;;;12.35;9.85;;;28.00;99.70;;;;;;4973492;28;20132;-79
2023/08/05 10:06:07;;;;;;;10.90;9.90;;;27.60;98.80;;;;;;4972399;28;20567;-79
2023/08/05 10:08:35;;;;;;;18.52;11.77;;;27.90;99.00;;;;;;4971618;28;20120;-80
2023/08/05 10:11:01;;;;;;;14.43;12.90;;;28.50;99.90;;;;;;4988537;28;20034;-79
2023/08/05 10:13:26;;;;;;;14.55;10.20;;;28.50;99.90;;;;;;4990764;28;20156;-79
2023/08/05 10:15:53;;;;;;;12.40;10.75;;;28.80;98.20;;;;;;4993794;28;20033;-79
2023/08/05 10:18:19;;;;;;;11.55;9.30;;;28.60;99.70;;;;;;5002425;28;20474;-78
2023/08/05 10:20:51;;;;;;;14.10;9.95;;;28.90;99.40;;;;;;4988460;28;20126;-79
2023/08/05 10:23:17;;;;;;;11.57;9.75;;;29.00;99.70;;;;;;4988723;28;20039;-81
2023/08/05 10:25:49;;;;;;;10.38;7.68;;;29.20;99.90;;;;;;4978499;28;20087;-80
2023/08/05 10:28:23;;;;;;;10.30;7.82;;;29.30;99.20;;;;;;5004494;28;20076;-81
2023/08/05 10:30:49;;;;;;;8.73;7.75;;;29.00;96.00;;;;;;5021179;28;20048;-82
2023/08/05 10:33:15;;;;;;;10.00;7.82;;;29.40;97.40;;;;;;4972891;28;20494;-82
2023/08/05 10:35:42;;;;;;;11.00;7.45;;;29.80;98.40;;;;;;4990867;28;20556;-82
2023/08/05 10:38:19;;;;;;;7.75;7.05;;;30.10;95.70;;;;;;4979423;28;20038;-82
2023/08/05 10:40:51;;;;;;;8.63;7.80;;;29.80;97.00;;;;;;4647259;28;10000136;-82
2023/08/05 10:43:40;;;;;;;10.02;7.63;;;29.30;94.90;;;;;;4992694;28;20038;-82
2023/08/05 10:46:06;;;;;;;8.35;7.50;;;29.10;93.20;;;;;;4989699;28;20281;-82
2023/08/05 10:48:36;;;;;;;8.93;7.38;;;29.20;95.40;;;;;;5020159;28;20033;-82
2023/08/05 10:51:09;;;;;;;7.80;7.03;;;29.10;98.10;;;;;;4982947;28;20048;-82
2023/08/05 10:53:34;;;;;;;7.20;6.50;;;29.30;96.60;;;;;;4964433;28;20042;-81
2023/08/05 10:56:00;;;;;;;11.02;6.80;;;29.30;95.80;;;;;;4952157;28;20406;-82
2023/08/05 10:58:29;;;;;;;6.15;5.53;;;29.90;95.90;;;;;;4990183;28;20606;-82
2023/08/05 11:01:04;;;;;;;6.43;5.30;;;29.90;96.40;;;;;;4990474;28;20401;-83
2023/08/05 11:03:42;;;;;;;5.43;4.93;;;30.20;95.40;;;;;;4990689;28;20030;-82
2023/08/05 11:06:08;;;;;;;6.13;4.53;;;30.70;93.80;;;;;;5008297;28;20076;-82
2023/08/05 11:08:34;;;;;;;5.88;5.05;;;30.80;91.60;;;;;;5010319;28;20465;-82
2023/08/05 11:11:04;;;;;;;5.15;3.78;;;30.90;93.40;;;;;;4994572;28;20060;-82
2023/08/05 11:13:34;;;;;;;4.00;3.65;;;30.90;92.20;;;;;;4995773;28;20394;-82
2023/08/05 11:16:12;;;;;;;3.90;3.33;;;30.70;86.70;;;;;;4996541;28;20382;-82
2023/08/05 11:18:39;;;;;;;4.65;4.18;;;30.90;92.10;;;;;;4978762;28;20038;-82
2023/08/05 11:21:07;;;;;;;4.72;4.32;;;31.00;90.00;;;;;;4990144;28;20527;-82
2023/08/05 11:23:32;;;;;;;4.63;3.88;;;30.80;86.90;;;;;;5007918;28;20041;-82
2023/08/05 11:26:00;;;;;;;5.40;4.05;;;30.80;92.10;;;;;;5011665;28;20592;-82
2023/08/05 11:28:26;;;;;;;4.32;3.92;;;31.30;90.40;;;;;;4991930;28;20022;-82
2023/08/05 11:30:53;;;;;;;3.78;3.47;;;31.50;90.50;;;;;;4978427;28;20112;-83
2023/08/05 11:33:19;;;;;;;4.13;3.70;;;31.40;84.50;;;;;;5006593;28;21619;-83
2023/08/05 11:35:46;;;;;;;3.83;3.47;;;31.30;82.90;;;;;;4996878;28;20033;-82
2023/08/05 11:38:16;;;;;;;3.50;3.20;;;30.80;80.00;;;;;;4982754;28;20500;-82
2023/08/05 11:40:46;;;;;;;3.97;3.63;;;30.90;86.80;;;;;;4995440;28;20079;-82
2023/08/05 11:43:12;;;;;;;4.65;3.38;;;31.10;89.30;;;;;;4986396;28;20065;-82
2023/08/05 11:45:40;;;;;;;4.07;3.67;;;31.40;88.50;;;;;;4999682;28;20037;-81
2023/08/05 11:48:24;;;;;;;2.95;2.75;;;31.30;88.20;;;;;;5013612;28;20396;-82
2023/08/05 11:50:51;;;;;;;4.22;2.90;;;31.00;89.30;;;;;;5010528;28;20033;-82
2023/08/05 11:53:17;;;;;;;3.20;2.55;;;30.90;82.90;;;;;;4990358;28;20065;-82
2023/08/05 11:55:44;;;;;;;2.85;2.65;;;31.00;78.80;;;;;;4994098;28;20072;-83
2023/08/05 11:58:13;;;;;;;2.78;2.58;;;31.20;84.80;;;;;;4981357;28;20796;-82
2023/08/05 12:00:52;;;;;;;3.50;2.75;;;31.50;84.60;;;;;;4976537;28;20077;-82
2023/08/05 12:03:17;;;;;;;5.88;2.88;;;31.30;76.70;;;;;;4994861;28;20140;-82
2023/08/05 12:05:43;;;;;;;6.00;2.95;;;31.20;84.00;;;;;;4978668;28;20540;-82
2023/08/05 12:08:10;;;;;;;2.55;2.33;;;31.50;80.70;;;;;;4978962;28;20152;-81
2023/08/05 12:10:35;;;;;;;3.33;2.97;;;31.80;78.90;;;;;;4993205;28;20547;-82
2023/08/05 12:13:03;;;;;;;2.60;2.40;;;31.70;78.40;;;;;;4990307;28;20037;-82
2023/08/05 12:15:28;;;;;;;3.00;2.50;;;31.80;80.40;;;;;;4983594;28;20045;-81
2023/08/05 12:18:01;;;;;;;2.55;2.30;;;31.40;77.90;;;;;;4997405;28;20634;-82
2023/08/05 12:20:27;;;;;;;3.30;2.40;;;31.10;81.60;;;;;;4994311;28;20042;-81
2023/08/05 12:22:53;;;;;;;2.65;2.40;;;31.10;78.00;;;;;;4995797;28;20028;-81
2023/08/05 12:25:19;;;;;;;2.53;2.13;;;30.90;76.80;;;;;;4995538;28;20404;-82
2023/08/05 12:27:45;;;;;;;4.45;2.35;;;31.20;80.90;;;;;;4980453;28;20037;-82
2023/08/05 12:30:11;;;;;;;3.22;1.80;;;31.30;80.10;;;;;;4993261;28;20045;-81
2023/08/05 12:32:37;;;;;;;2.63;2.42;;;31.30;80.40;;;;;;4999387;28;20040;-81
2023/08/05 12:35:04;;;;;;;3.42;2.80;;;31.00;80.90;;;;;;5001937;28;20033;-82
2023/08/05 12:37:30;;;;;;;3.33;3.00;;;31.30;78.30;;;;;;5001150;28;20034;-81